createdAt,value
2018-02-16T00:00:05.342Z,32.57
2018-02-16T00:02:34.558Z,32.43
2018-02-16T00:05:03.022Z,31.87
2018-02-16T00:07:31.413Z,33.10
2018-02-16T00:09:59.786Z,36.00
2018-02-16T00:12:28.201Z,37.27
2018-02-16T00:14:56.651Z,29.30
2018-02-16T00:17:25.021Z,34.07
2018-02-16T00:19:54.191Z,31.60
2018-02-16T00:22:22.592Z,38.33
2018-02-16T00:24:51.744Z,42.37
2018-02-16T00:27:20.140Z,31.83
2018-02-16T00:29:48.538Z,28.60
2018-02-16T00:32:17.683Z,37.37
2018-02-16T00:34:46.053Z,36.60
2018-02-16T00:37:14.449Z,39.07
2018-02-16T00:39:42.825Z,37.97
2018-02-16T00:42:11.239Z,40.20
2018-02-16T00:44:40.393Z,43.13
2018-02-16T00:47:08.773Z,42.77
2018-02-16T00:49:37.165Z,42.60
2018-02-16T00:52:05.558Z,48.57
2018-02-16T00:54:33.929Z,50.60
2018-02-16T00:57:02.401Z,49.33
2018-02-16T00:59:30.772Z,54.30
2018-02-16T01:01:59.293Z,66.90
2018-02-16T01:04:28.427Z,58.07
2018-02-16T01:06:56.789Z,49.30
2018-02-16T01:09:25.254Z,55.13
2018-02-16T01:11:54.396Z,49.20
2018-02-16T01:14:22.881Z,65.80
2018-02-16T01:16:51.248Z,55.93
2018-02-16T01:19:19.702Z,60.77
2018-02-16T01:21:48.833Z,55.23
2018-02-16T01:24:17.232Z,63.23
2018-02-16T01:26:45.630Z,56.13
2018-02-16T01:29:14.010Z,68.17
2018-02-16T01:31:43.247Z,58.23
2018-02-16T01:34:11.610Z,60.67
2018-02-16T01:36:40.741Z,65.33
2018-02-16T01:39:09.247Z,69.13
2018-02-16T01:41:37.681Z,57.47
2018-02-16T01:44:06.082Z,56.73
2018-02-16T01:46:34.457Z,66.63
2018-02-16T01:49:02.841Z,62.70
2018-02-16T01:51:31.235Z,66.93
2018-02-16T01:53:59.670Z,59.73
2018-02-16T01:56:28.070Z,62.10
2018-02-16T01:58:56.473Z,64.67
2018-02-16T02:01:24.869Z,64.20
2018-02-16T02:03:53.236Z,65.13
2018-02-16T02:06:21.633Z,56.47
2018-02-16T02:08:50.789Z,71.07
2018-02-16T02:11:19.246Z,73.77
2018-02-16T02:13:47.643Z,73.83
2018-02-16T02:16:16.022Z,69.90
2018-02-16T02:18:44.423Z,69.87
2018-02-16T02:21:12.813Z,70.03
2018-02-16T02:23:41.225Z,74.63
2018-02-16T02:26:10.396Z,59.17
2018-02-16T02:28:38.777Z,66.30
2018-02-16T02:31:07.137Z,71.50
2018-02-16T02:33:35.532Z,72.83
2018-02-16T02:36:04.705Z,70.60
2018-02-16T02:38:33.078Z,75.43
2018-02-16T02:41:01.492Z,77.43
2018-02-16T02:43:30.658Z,65.40
2018-02-16T02:45:59.041Z,67.37
2018-02-16T02:48:27.586Z,69.80
2018-02-16T02:50:55.983Z,76.20
2018-02-16T02:53:24.408Z,62.67
2018-02-16T02:55:52.814Z,62.90
2018-02-16T02:58:21.213Z,71.37
2018-02-16T03:00:49.585Z,64.57
2018-02-16T03:03:18.014Z,71.93
2018-02-16T03:05:46.537Z,63.80
2018-02-16T03:08:14.901Z,65.73
2018-02-16T03:10:43.295Z,74.20
2018-02-16T03:13:11.841Z,61.80
2018-02-16T03:15:40.259Z,61.00
2018-02-16T03:18:08.673Z,75.03
2018-02-16T03:20:37.046Z,62.13
2018-02-16T03:23:05.557Z,65.60
2018-02-16T03:25:34.724Z,71.13
2018-02-16T03:28:03.101Z,74.70
2018-02-16T03:30:31.473Z,81.00
2018-02-16T03:32:59.912Z,73.93
2018-02-16T03:35:29.048Z,79.60
2018-02-16T03:37:57.442Z,66.23
2018-02-16T03:40:25.897Z,68.87
2018-02-16T03:42:54.301Z,71.13
2018-02-16T03:45:22.716Z,64.93
2018-02-16T03:47:51.106Z,76.17
2018-02-16T03:50:19.600Z,83.33
2018-02-16T03:52:48.013Z,68.77
2018-02-16T03:55:16.379Z,79.43
2018-02-16T03:57:44.750Z,76.53
2018-02-16T04:00:13.266Z,82.10
2018-02-16T04:02:43.152Z,76.27
2018-02-16T04:05:11.537Z,84.53
2018-02-16T04:07:39.925Z,76.90
2018-02-16T04:10:08.315Z,78.07
2018-02-16T04:12:36.716Z,79.53
2018-02-16T04:15:05.088Z,75.97
2018-02-16T04:17:33.492Z,81.10
2018-02-16T04:20:01.926Z,84.17
2018-02-16T04:22:30.293Z,71.60
2018-02-16T04:24:58.672Z,79.60
2018-02-16T04:27:27.067Z,70.37
2018-02-16T04:29:55.467Z,83.67
2018-02-16T04:32:24.640Z,86.97
2018-02-16T04:34:53.149Z,71.87
2018-02-16T04:37:22.409Z,89.77
2018-02-16T04:39:50.833Z,83.33
2018-02-16T04:42:19.994Z,68.77
2018-02-16T04:44:48.371Z,70.70
2018-02-16T04:47:16.782Z,76.60
2018-02-16T04:49:45.161Z,93.10
2018-02-16T04:52:14.312Z,72.63
2018-02-16T04:54:42.700Z,79.03
2018-02-16T04:57:11.077Z,72.80
2018-02-16T04:59:39.577Z,76.97
2018-02-16T05:02:08.030Z,71.47
2018-02-16T05:04:36.439Z,58.50
2018-02-16T05:07:04.856Z,70.33
2018-02-16T05:09:33.290Z,60.10
2018-02-16T05:12:01.750Z,58.10
2018-02-16T05:14:30.171Z,63.30
2018-02-16T05:16:58.537Z,57.73
2018-02-16T05:19:26.978Z,47.40
2018-02-16T05:21:55.396Z,52.97
2018-02-16T05:24:23.987Z,46.83
2018-02-16T05:26:53.343Z,37.50
2018-02-16T05:29:21.731Z,34.67
2018-02-16T05:31:50.172Z,38.97
2018-02-16T05:34:18.783Z,40.27
2018-02-16T05:36:47.185Z,41.20
2018-02-16T05:39:15.565Z,29.10
2018-02-16T05:41:43.993Z,31.17
2018-02-16T05:44:12.351Z,46.10
2018-02-16T05:46:40.754Z,34.87
2018-02-16T05:49:09.130Z,31.43
2018-02-16T05:51:37.491Z,27.20
2018-02-16T05:54:06.663Z,30.20
2018-02-16T05:56:35.050Z,35.03
2018-02-16T05:59:03.460Z,26.50
2018-02-16T06:01:31.825Z,32.63
2018-02-16T06:04:00.993Z,25.47
2018-02-16T06:06:29.395Z,31.33
2018-02-16T06:08:57.797Z,28.07
2018-02-16T06:11:26.221Z,21.37
2018-02-16T06:13:54.598Z,21.20
2018-02-16T06:16:23.049Z,19.13
2018-02-16T06:18:51.470Z,22.00
2018-02-16T06:21:19.830Z,27.47
2018-02-16T06:23:48.233Z,23.63
2018-02-16T06:26:16.593Z,21.37
2018-02-16T06:28:45.113Z,26.90
2018-02-16T06:31:13.505Z,19.10
2018-02-16T06:33:41.911Z,18.63
2018-02-16T06:36:10.268Z,25.47
2018-02-16T06:38:38.670Z,17.40
2018-02-16T06:41:07.090Z,14.70
2018-02-16T06:43:36.247Z,17.30
2018-02-16T06:46:04.635Z,19.97
2018-02-16T06:48:33.041Z,23.77
2018-02-16T06:51:01.405Z,21.40
2018-02-16T06:53:29.861Z,17.00
2018-02-16T06:55:58.236Z,25.17
2018-02-16T06:58:26.657Z,28.47
2018-02-16T07:00:55.804Z,30.20
2018-02-16T07:03:24.211Z,22.77
2018-02-16T07:05:52.595Z,21.43
2018-02-16T07:08:20.993Z,23.33
2018-02-16T07:10:50.170Z,22.93
2018-02-16T07:13:18.625Z,28.97
2018-02-16T07:15:47.042Z,28.27
2018-02-16T07:18:15.413Z,24.50
2018-02-16T07:20:43.824Z,25.63
2018-02-16T07:23:12.953Z,24.97
2018-02-16T07:25:41.326Z,23.33
2018-02-16T07:28:09.813Z,27.00
2018-02-16T07:30:38.197Z,29.60
2018-02-16T07:33:06.579Z,33.47
2018-02-16T07:35:34.963Z,39.13
2018-02-16T07:38:03.332Z,41.33
2018-02-16T07:40:31.761Z,35.83
2018-02-16T07:43:00.909Z,35.53
2018-02-16T07:45:29.283Z,39.17
2018-02-16T07:47:57.676Z,33.10
2018-02-16T07:50:26.063Z,36.90
2018-02-16T07:52:54.460Z,33.53
2018-02-16T07:55:22.825Z,42.63
2018-02-16T07:57:51.244Z,36.33
2018-02-16T08:00:20.388Z,37.10
2018-02-16T08:02:48.752Z,39.47
2018-02-16T08:05:17.153Z,37.97
2018-02-16T08:07:45.583Z,40.30
2018-02-16T08:10:13.960Z,37.83
2018-02-16T08:12:42.337Z,38.83
2018-02-16T08:15:10.752Z,43.30
2018-02-16T08:17:39.124Z,37.10
2018-02-16T08:20:07.528Z,34.20
2018-02-16T08:22:35.896Z,44.33
2018-02-16T08:25:04.268Z,35.33
2018-02-16T08:27:32.710Z,39.90
2018-02-16T08:30:01.090Z,32.43
2018-02-16T08:32:29.452Z,30.63
2018-02-16T08:34:58.607Z,37.20
2018-02-16T08:37:27.010Z,28.03
2018-02-16T08:39:55.393Z,30.27
2018-02-16T08:42:23.792Z,30.73
2018-02-16T08:44:52.951Z,32.17
2018-02-16T08:47:21.313Z,31.53
2018-02-16T08:49:49.730Z,26.17
2018-02-16T08:52:18.133Z,25.40
2018-02-16T08:54:46.509Z,21.77
2018-02-16T08:57:14.877Z,27.57
2018-02-16T08:59:44.068Z,21.97
2018-02-16T09:02:13.206Z,21.63
2018-02-16T09:04:41.628Z,20.17
2018-02-16T09:07:10.037Z,21.03
2018-02-16T09:09:38.393Z,19.67
2018-02-16T09:12:07.565Z,29.20
2018-02-16T09:14:36.792Z,22.03
2018-02-16T09:17:05.940Z,23.30
2018-02-16T09:19:34.338Z,32.03
2018-02-16T09:22:02.802Z,23.53
2018-02-16T09:24:31.167Z,26.73
2018-02-16T09:26:59.555Z,35.00
2018-02-16T09:29:27.945Z,29.93
2018-02-16T09:31:56.318Z,25.30
2018-02-16T09:34:24.723Z,30.33
2018-02-16T09:36:54.298Z,20.60
2018-02-16T09:39:27.341Z,21.30
2018-02-16T09:41:56.492Z,28.40
2018-02-16T09:44:24.862Z,30.73
2018-02-16T09:46:53.238Z,29.80
2018-02-16T09:49:21.815Z,26.10
2018-02-16T09:51:50.201Z,29.27
2018-02-16T09:54:18.576Z,33.53
2018-02-16T09:56:46.985Z,38.93
2018-02-16T09:59:15.426Z,38.80
2018-02-16T10:01:43.795Z,33.53
2018-02-16T10:04:12.971Z,41.17
2018-02-16T10:06:42.124Z,38.97
2018-02-16T10:09:10.501Z,41.93
2018-02-16T10:11:39.005Z,48.53
2018-02-16T10:14:07.415Z,43.33
2018-02-16T10:16:35.801Z,38.63
2018-02-16T10:19:04.218Z,38.77
2018-02-16T10:21:32.597Z,46.83
2018-02-16T10:24:00.994Z,43.87
2018-02-16T10:26:30.173Z,44.03
2018-02-16T10:28:58.552Z,40.33
2018-02-16T10:31:26.925Z,48.17
2018-02-16T10:33:55.329Z,50.47
2018-02-16T10:36:23.768Z,54.50
2018-02-16T10:38:52.252Z,53.00
2018-02-16T10:41:20.668Z,54.20
2018-02-16T10:43:49.115Z,52.30
2018-02-16T10:46:17.493Z,49.23
2018-02-16T10:48:45.925Z,46.23
2018-02-16T10:51:15.070Z,46.27
2018-02-16T10:53:43.441Z,45.07
2018-02-16T10:56:11.845Z,37.53
2018-02-16T10:58:40.262Z,40.97
2018-02-16T11:01:14.973Z,47.40
2018-02-16T11:03:43.377Z,44.37
2018-02-16T11:06:13.346Z,38.73
2018-02-16T11:08:47.197Z,40.37
2018-02-16T11:11:16.376Z,36.47
2018-02-16T11:13:44.784Z,34.57
2018-02-16T11:16:13.205Z,36.10
2018-02-16T11:18:42.211Z,34.13
2018-02-16T11:21:10.662Z,36.50
2018-02-16T11:23:39.029Z,35.07
2018-02-16T11:26:07.450Z,32.70
2018-02-16T11:28:35.913Z,41.47
2018-02-16T11:31:04.312Z,40.20
2018-02-16T11:33:32.685Z,47.27
2018-02-16T11:36:01.109Z,37.83
2018-02-16T11:38:29.478Z,43.03
2018-02-16T11:40:58.621Z,35.63
2018-02-16T11:43:27.245Z,41.93
2018-02-16T11:45:56.404Z,33.73
2018-02-16T11:48:24.781Z,37.47
2018-02-16T11:50:53.190Z,33.23
2018-02-16T11:53:21.661Z,29.17
2018-02-16T11:55:50.111Z,34.97
2018-02-16T11:58:19.059Z,43.93
2018-02-16T12:00:47.744Z,38.47
2018-02-16T12:03:16.921Z,39.40
2018-02-16T12:05:45.338Z,24.77
2018-02-16T12:08:13.760Z,35.40
2018-02-16T12:10:42.133Z,32.30
2018-02-16T12:13:10.672Z,31.00
2018-02-16T12:15:39.086Z,32.53
2018-02-16T12:18:07.448Z,25.20
2018-02-16T12:20:36.135Z,27.30
2018-02-16T12:23:04.508Z,28.60
2018-02-16T12:25:32.877Z,36.03
2018-02-16T12:28:01.277Z,35.50
2018-02-16T12:30:29.648Z,33.80
2018-02-16T12:32:58.054Z,27.27
2018-02-16T12:35:26.522Z,28.37
2018-02-16T12:37:54.894Z,34.10
2018-02-16T12:40:23.281Z,23.23
2018-02-16T12:42:51.659Z,25.73
2018-02-16T12:45:20.048Z,24.53
2018-02-16T12:47:48.525Z,34.33
2018-02-16T12:50:16.990Z,26.97
2018-02-16T12:52:45.570Z,25.57
2018-02-16T12:55:14.151Z,29.90
2018-02-16T12:57:42.512Z,31.50
2018-02-16T13:00:10.890Z,31.13
2018-02-16T13:02:39.365Z,28.33
2018-02-16T13:05:07.757Z,30.43
2018-02-16T13:07:36.460Z,26.07
2018-02-16T13:10:04.826Z,27.87
2018-02-16T13:12:33.201Z,35.33
2018-02-16T13:15:01.598Z,33.67
2018-02-16T13:17:29.981Z,45.07
2018-02-16T13:19:58.466Z,27.23
2018-02-16T13:22:26.868Z,26.27
2018-02-16T13:24:55.230Z,28.53
2018-02-16T13:27:23.632Z,38.00
2018-02-16T13:29:52.026Z,26.00
2018-02-16T13:32:21.272Z,30.33
2018-02-16T13:34:49.650Z,19.93
2018-02-16T13:37:18.085Z,27.70
2018-02-16T13:39:47.334Z,28.00
2018-02-16T13:42:15.749Z,24.83
2018-02-16T13:44:44.108Z,24.23
2018-02-16T13:47:12.573Z,26.60
2018-02-16T13:49:41.009Z,21.73
2018-02-16T13:52:09.374Z,17.70
2018-02-16T13:54:38.503Z,17.27
2018-02-16T13:57:06.928Z,20.10
2018-02-16T13:59:35.308Z,22.20
2018-02-16T14:02:03.710Z,19.00
2018-02-16T14:04:32.893Z,22.23
2018-02-16T14:07:02.057Z,26.00
2018-02-16T14:09:30.443Z,33.47
2018-02-16T14:11:58.909Z,18.53
2018-02-16T14:14:27.362Z,21.53
2018-02-16T14:16:56.484Z,27.27
2018-02-16T14:19:24.932Z,24.50
2018-02-16T14:21:53.342Z,33.17
2018-02-16T14:24:21.701Z,34.37
2018-02-16T14:26:50.065Z,23.23
2018-02-16T14:29:18.486Z,23.57
2018-02-16T14:31:46.900Z,25.33
2018-02-16T14:34:16.037Z,26.57
2018-02-16T14:36:44.705Z,23.17
2018-02-16T14:39:13.081Z,23.43
2018-02-16T14:41:42.300Z,26.80
2018-02-16T14:44:10.732Z,28.20
2018-02-16T14:46:39.903Z,23.63
2018-02-16T14:49:08.299Z,18.83
2018-02-16T14:51:36.690Z,26.63
2018-02-16T14:54:05.148Z,25.73
2018-02-16T14:56:33.527Z,24.30
2018-02-16T14:59:01.930Z,22.20
2018-02-16T15:01:31.110Z,25.47
2018-02-16T15:03:59.498Z,25.47
2018-02-16T15:06:27.876Z,35.97
2018-02-16T15:08:57.055Z,23.73
2018-02-16T15:11:25.509Z,25.97
2018-02-16T15:13:53.867Z,24.90
2018-02-16T15:16:22.273Z,29.83
2018-02-16T15:18:50.669Z,29.43
2018-02-16T15:21:19.068Z,24.83
2018-02-16T15:23:48.215Z,25.87
2018-02-16T15:26:16.636Z,26.30
2018-02-16T15:28:45.046Z,22.37
2018-02-16T15:31:26.328Z,27.80
2018-02-16T15:33:54.724Z,22.77
2018-02-16T15:36:23.169Z,19.40
2018-02-16T15:38:52.338Z,23.70
2018-02-16T15:41:20.746Z,22.23
2018-02-16T15:43:49.949Z,19.97
2018-02-16T15:46:19.084Z,22.83
2018-02-16T15:48:47.469Z,19.77
2018-02-16T15:51:15.848Z,19.30
2018-02-16T15:53:44.237Z,20.83
2018-02-16T15:56:12.638Z,24.13
2018-02-16T15:58:41.045Z,24.13
2018-02-16T16:01:10.207Z,21.57
2018-02-16T16:03:39.419Z,29.50
2018-02-16T16:06:07.822Z,27.07
2018-02-16T16:08:36.968Z,26.30
2018-02-16T16:11:05.361Z,26.07
2018-02-16T16:13:33.717Z,21.93
2018-02-16T16:16:02.189Z,20.13
2018-02-16T16:18:30.557Z,29.53
2018-02-16T16:20:58.954Z,26.53
2018-02-16T16:23:27.345Z,27.70
2018-02-16T16:25:55.814Z,27.43
2018-02-16T16:28:24.189Z,29.80
2018-02-16T16:30:52.661Z,21.47
2018-02-16T16:33:21.063Z,25.00
2018-02-16T16:35:49.515Z,25.53
2018-02-16T16:38:17.869Z,28.20
2018-02-16T16:40:47.041Z,22.97
2018-02-16T16:43:15.442Z,21.87
2018-02-16T16:45:44.577Z,21.17
2018-02-16T16:48:12.965Z,29.60
2018-02-16T16:50:41.425Z,25.50
2018-02-16T16:53:09.828Z,34.03
2018-02-16T16:55:38.245Z,31.97
2018-02-16T16:58:06.661Z,30.03
2018-02-16T17:00:35.080Z,34.00
2018-02-16T17:03:03.449Z,27.13
2018-02-16T17:05:31.833Z,27.90
2018-02-16T17:08:00.205Z,31.67
2018-02-16T17:10:28.607Z,23.03
2018-02-16T17:12:57.027Z,25.07
2018-02-16T17:15:25.409Z,33.77
2018-02-16T17:17:54.549Z,34.23
2018-02-16T17:20:22.983Z,38.00
2018-02-16T17:22:51.341Z,43.60
2018-02-16T17:25:20.509Z,32.43
2018-02-16T17:27:48.948Z,31.50
2018-02-16T17:30:17.344Z,27.00
2018-02-16T17:32:45.812Z,29.50
2018-02-16T17:35:14.174Z,31.13
2018-02-16T17:37:42.751Z,36.03
2018-02-16T17:40:11.138Z,33.27
2018-02-16T17:42:39.514Z,29.87
2018-02-16T17:45:07.907Z,30.90
2018-02-16T17:47:36.344Z,31.63
2018-02-16T17:50:05.469Z,30.93
2018-02-16T17:55:31.418Z,27.20
2018-02-16T17:57:59.794Z,28.53
2018-02-16T18:00:28.198Z,30.30
2018-02-16T18:02:56.562Z,31.50
2018-02-16T18:05:24.941Z,24.77
2018-02-16T18:07:53.333Z,30.63
2018-02-16T18:10:21.746Z,32.27
2018-02-16T18:12:50.882Z,23.80
2018-02-16T18:15:19.270Z,39.80
2018-02-16T18:17:47.678Z,28.23
2018-02-16T18:20:16.117Z,27.90
2018-02-16T18:22:44.514Z,26.40
2018-02-16T18:25:12.892Z,21.93
2018-02-16T18:27:41.362Z,36.60
2018-02-16T18:30:09.797Z,27.63
2018-02-16T18:32:38.969Z,24.20
2018-02-16T18:35:07.342Z,29.37
2018-02-16T18:37:35.754Z,20.27
2018-02-16T18:40:04.898Z,25.40
2018-02-16T18:42:33.268Z,29.00
2018-02-16T18:45:01.766Z,24.27
2018-02-16T18:47:30.142Z,29.23
2018-02-16T18:49:58.616Z,19.30
2018-02-16T18:52:27.009Z,28.57
2018-02-16T18:54:55.424Z,28.50
2018-02-16T18:57:24.566Z,22.63
2018-02-16T18:59:52.978Z,24.10
2018-02-16T19:02:21.380Z,27.40
2018-02-16T19:04:50.523Z,23.10
2018-02-16T19:07:18.905Z,24.87
2018-02-16T19:09:47.293Z,30.30
2018-02-16T19:12:15.673Z,30.10
2018-02-16T19:14:44.073Z,29.90
2018-02-16T19:17:12.468Z,27.57
2018-02-16T19:19:41.646Z,32.37
2018-02-16T19:22:10.054Z,21.70
2018-02-16T19:24:39.212Z,40.80
2018-02-16T19:27:07.610Z,23.10
2018-02-16T19:29:36.002Z,28.77
2018-02-16T19:32:05.146Z,27.60
2018-02-16T19:34:33.581Z,21.17
2018-02-16T19:37:01.988Z,27.53
2018-02-16T19:39:30.377Z,25.10
2018-02-16T19:41:58.793Z,23.70
2018-02-16T19:44:27.206Z,24.63
2018-02-16T19:46:56.346Z,23.80
2018-02-16T19:49:24.773Z,23.80
2018-02-16T19:51:55.103Z,29.43
2018-02-16T19:54:24.337Z,25.83
2018-02-16T19:56:52.710Z,29.07
2018-02-16T19:59:21.108Z,30.47
2018-02-16T20:01:49.529Z,30.63
2018-02-16T20:04:18.768Z,23.30
2018-02-16T20:06:47.133Z,28.30
2018-02-16T20:09:15.526Z,41.70
2018-02-16T20:11:43.929Z,27.83
2018-02-16T20:14:12.340Z,29.63
2018-02-16T20:16:41.576Z,39.37
2018-02-16T20:19:09.965Z,30.07
2018-02-16T20:21:38.338Z,41.17
2018-02-16T20:24:06.725Z,33.60
2018-02-16T20:26:35.113Z,38.40
2018-02-16T20:29:03.639Z,36.00
2018-02-16T20:31:32.013Z,32.63
2018-02-16T20:34:01.258Z,25.50
2018-02-16T20:36:29.672Z,37.07
2018-02-16T20:38:58.170Z,34.33
2018-02-16T20:41:27.298Z,29.90
2018-02-16T20:43:55.705Z,37.13
2018-02-16T20:46:24.105Z,41.47
2018-02-16T20:48:52.514Z,28.47
2018-02-16T20:51:21.708Z,28.53
2018-02-16T20:53:50.875Z,30.33
2018-02-16T20:56:19.325Z,32.20
2018-02-16T20:58:47.932Z,28.20
2018-02-16T21:01:16.580Z,32.10
2018-02-16T21:03:45.015Z,29.87
2018-02-16T21:06:13.412Z,34.80
2018-02-16T21:08:41.809Z,40.63
2018-02-16T21:11:10.237Z,32.40
2018-02-16T21:13:38.695Z,26.87
2018-02-16T21:16:07.067Z,29.37
2018-02-16T21:18:35.456Z,35.33
2018-02-16T21:21:03.933Z,29.13
2018-02-16T21:23:32.301Z,26.77
2018-02-16T21:26:00.716Z,36.70
2018-02-16T21:28:29.149Z,35.60
2018-02-16T21:30:57.529Z,34.53
2018-02-16T21:33:25.962Z,24.03
2018-02-16T21:35:54.409Z,33.77
2018-02-16T21:38:22.849Z,33.23
2018-02-16T21:40:51.361Z,36.50
2018-02-16T21:43:19.748Z,30.00
2018-02-16T21:45:48.204Z,34.90
2018-02-16T21:48:16.642Z,28.13
2018-02-16T21:50:45.036Z,35.23
2018-02-16T21:53:14.228Z,27.73
2018-02-16T21:55:43.366Z,30.13
2018-02-16T21:58:11.746Z,43.67
2018-02-16T22:00:40.196Z,31.47
2018-02-16T22:03:09.385Z,29.77
2018-02-16T22:05:38.530Z,33.10
2018-02-16T22:08:07.109Z,30.80
2018-02-16T22:10:35.513Z,32.87
2018-02-16T22:13:03.873Z,40.77
2018-02-16T22:15:32.238Z,32.40
2018-02-16T22:18:00.674Z,32.57
2018-02-16T22:20:29.808Z,33.17
2018-02-16T22:22:58.209Z,32.63
2018-02-16T22:25:26.616Z,32.17
2018-02-16T22:27:55.049Z,33.23
2018-02-16T22:30:23.457Z,34.90
2018-02-16T22:32:51.825Z,30.10
2018-02-16T22:35:20.229Z,30.70
2018-02-16T22:37:48.698Z,29.37
2018-02-16T22:40:17.150Z,37.93
2018-02-16T22:42:45.560Z,27.17
2018-02-16T22:45:13.923Z,33.50
2018-02-16T22:47:42.320Z,32.03
2018-02-16T22:50:10.705Z,34.30
2018-02-16T22:52:39.143Z,45.93
2018-02-16T22:55:07.948Z,39.77
2018-02-16T22:57:36.310Z,34.77
2018-02-16T23:00:04.725Z,42.97
2018-02-16T23:02:33.086Z,39.27
2018-02-16T23:05:01.508Z,37.60
2018-02-16T23:07:30.745Z,35.70
2018-02-16T23:09:59.144Z,44.20
2018-02-16T23:12:27.549Z,32.73
2018-02-16T23:14:55.913Z,46.10
2018-02-16T23:17:24.365Z,37.70
2018-02-16T23:19:52.847Z,44.93
2018-02-16T23:22:21.217Z,31.57
2018-02-16T23:24:49.617Z,38.17
2018-02-16T23:27:18.000Z,39.57
2018-02-16T23:29:46.413Z,35.77
2018-02-16T23:32:15.596Z,35.03
2018-02-16T23:34:43.974Z,31.33
2018-02-16T23:37:12.369Z,31.77
2018-02-16T23:39:40.849Z,27.67
2018-02-16T23:42:10.030Z,37.87
2018-02-16T23:44:38.342Z,39.73
2018-02-16T23:47:06.701Z,31.47
2018-02-16T23:49:35.088Z,30.87
2018-02-16T23:52:03.491Z,36.17
2018-02-16T23:54:31.979Z,35.80
2018-02-16T23:57:00.355Z,34.43
2018-02-16T23:59:28.756Z,33.77
